Stefarion — DJ2142 — position and weather

sailwx.info

Track history (hours):
 
Tides and Currents Weather Stations Pressure Air Temp Water Temp Dewpoint Dewpoint Depression Visibility Wind Speed Wind Dir Waves Ship Positions

Stefarion

Last reported at 2014-Sep-01 23:34 UTC. Time now 2014-Sep-01 23:36 UTC.
Position N 47°34' E 007°35'.

Length 12 m.

Type: Sailing vessel. MMSI: 211203080.

Date/timePositionNaut miles runAvg speedWind from/ knotsBaromVisibWave heightAir tempDewpointWater temp
2014-Sep-01 23:34N 47°34' E 007°35'0 0.0
2014-Sep-01 22:34N 47°34' E 007°35'0 0.0
2014-Sep-01 21:33N 47°34' E 007°35'0 0.0
2014-Sep-01 20:33N 47°34' E 007°35'0 0.0
2014-Sep-01 19:33N 47°34' E 007°35'0 0.0
2014-Sep-01 18:33N 47°34' E 007°35'0 0.4
2014-Sep-01 17:33N 47°34' E 007°35'3 3.2
2014-Sep-01 16:33N 47°33' E 007°39'0 0.0
2014-Sep-01 15:33N 47°33' E 007°39'0 0.0
2014-Sep-01 14:33N 47°33' E 007°39'0 0.0
2014-Sep-01 13:33N 47°33' E 007°39'0 0.0
2014-Sep-01 12:33N 47°33' E 007°39'0 0.0
2014-Sep-01 11:33N 47°33' E 007°39'0 0.0
2014-Sep-01 10:33N 47°33' E 007°39'0 0.0
2014-Sep-01 09:33N 47°33' E 007°39'0 0.0
2014-Sep-01 08:33N 47°33' E 007°39'0 0.0
2014-Sep-01 07:33N 47°33' E 007°39'0 0.4
2014-Sep-01 06:33N 47°33' E 007°39'0 0.0
2014-Sep-01 05:33N 47°33' E 007°39'0 0.0
2014-Sep-01 04:33N 47°33' E 007°39'0 0.0
2014-Sep-01 03:33N 47°33' E 007°39'0 0.0
2014-Sep-01 02:33N 47°33' E 007°39'0 0.0
2014-Sep-01 01:33N 47°33' E 007°39'0 0.0
2014-Sep-01 00:33N 47°33' E 007°39'0 0.0
2014-Aug-31 23:33N 47°33' E 007°39'0 0.0
2014-Aug-31 22:33N 47°33' E 007°39'0 0.0
2014-Aug-31 21:33N 47°33' E 007°39'0 0.0
2014-Aug-31 20:33N 47°33' E 007°39'0 0.0
2014-Aug-31 19:33N 47°33' E 007°39'0 0.0
2014-Aug-31 18:33N 47°33' E 007°39'0 0.0
2014-Aug-31 17:33N 47°33' E 007°39'1 1.0
2014-Aug-31 16:33N 47°34' E 007°38'2 2.1
2014-Aug-31 15:33N 47°35' E 007°35'5 5.1
2014-Aug-31 14:33N 47°39' E 007°32'66 2.0
2014-Aug-30 05:21N 48°43' E 007°57'11 5.5
2014-Aug-30 03:20N 48°52' E 008°07'3 4.0
2014-Aug-30 02:33N 48°54' E 008°09'4 3.9
2014-Aug-30 01:33N 48°58' E 008°12'4 4.0
2014-Aug-30 00:33N 49°00' E 008°17'4 4.4
2014-Aug-29 23:33N 49°04' E 008°19'4 4.4
2014-Aug-29 22:34N 49°08' E 008°22'4 4.3
2014-Aug-29 21:33N 49°12' E 008°23'4 4.3
2014-Aug-29 20:33N 49°16' E 008°27'3 3.2
2014-Aug-29 19:33N 49°19' E 008°27'111 2.6
2014-Aug-28 01:07N 50°55' E 006°58'  
Track history (hours):
 
Tides and Currents Weather Stations Pressure Air Temp Water Temp Dewpoint Dewpoint Depression Visibility Wind Speed Wind Dir Waves Ship Positions

Stefarion

Last reported at 2014-Sep-01 23:34 UTC. Time now 2014-Sep-01 23:36 UTC.
Position N 47°34' E 007°35'.

Length 12 m.

Type: Sailing vessel. MMSI: 211203080.

Date/timePositionNaut miles runAvg speedWind from/ knotsBaromVisibWave heightAir tempDewpointWater temp
2014-Sep-01 23:34N 47°34' E 007°35'0 0.0
2014-Sep-01 22:34N 47°34' E 007°35'0 0.0
2014-Sep-01 21:33N 47°34' E 007°35'0 0.0
2014-Sep-01 20:33N 47°34' E 007°35'0 0.0
2014-Sep-01 19:33N 47°34' E 007°35'0 0.0
2014-Sep-01 18:33N 47°34' E 007°35'0 0.4
2014-Sep-01 17:33N 47°34' E 007°35'3 3.2
2014-Sep-01 16:33N 47°33' E 007°39'0 0.0
2014-Sep-01 15:33N 47°33' E 007°39'0 0.0
2014-Sep-01 14:33N 47°33' E 007°39'0 0.0
2014-Sep-01 13:33N 47°33' E 007°39'0 0.0
2014-Sep-01 12:33N 47°33' E 007°39'0 0.0
2014-Sep-01 11:33N 47°33' E 007°39'0 0.0
2014-Sep-01 10:33N 47°33' E 007°39'0 0.0
2014-Sep-01 09:33N 47°33' E 007°39'0 0.0
2014-Sep-01 08:33N 47°33' E 007°39'0 0.0
2014-Sep-01 07:33N 47°33' E 007°39'0 0.4
2014-Sep-01 06:33N 47°33' E 007°39'0 0.0
2014-Sep-01 05:33N 47°33' E 007°39'0 0.0
2014-Sep-01 04:33N 47°33' E 007°39'0 0.0
2014-Sep-01 03:33N 47°33' E 007°39'0 0.0
2014-Sep-01 02:33N 47°33' E 007°39'0 0.0
2014-Sep-01 01:33N 47°33' E 007°39'0 0.0
2014-Sep-01 00:33N 47°33' E 007°39'0 0.0
2014-Aug-31 23:33N 47°33' E 007°39'0 0.0
2014-Aug-31 22:33N 47°33' E 007°39'0 0.0
2014-Aug-31 21:33N 47°33' E 007°39'0 0.0
2014-Aug-31 20:33N 47°33' E 007°39'0 0.0
2014-Aug-31 19:33N 47°33' E 007°39'0 0.0
2014-Aug-31 18:33N 47°33' E 007°39'0 0.0
2014-Aug-31 17:33N 47°33' E 007°39'1 1.0
2014-Aug-31 16:33N 47°34' E 007°38'2 2.1
2014-Aug-31 15:33N 47°35' E 007°35'5 5.1
2014-Aug-31 14:33N 47°39' E 007°32'66 2.0
2014-Aug-30 05:21N 48°43' E 007°57'11 5.5
2014-Aug-30 03:20N 48°52' E 008°07'3 4.0
2014-Aug-30 02:33N 48°54' E 008°09'4 3.9
2014-Aug-30 01:33N 48°58' E 008°12'4 4.0
2014-Aug-30 00:33N 49°00' E 008°17'4 4.4
2014-Aug-29 23:33N 49°04' E 008°19'4 4.4
2014-Aug-29 22:34N 49°08' E 008°22'4 4.3
2014-Aug-29 21:33N 49°12' E 008°23'4 4.3
2014-Aug-29 20:33N 49°16' E 008°27'3 3.2
2014-Aug-29 19:33N 49°19' E 008°27'111 2.6
2014-Aug-28 01:07N 50°55' E 006°58'  

Dump ship's entire track history